Time;durP1;ratioP1;P1;durP2;ratioP2;P2;SDS_P1;SDS_P2;PMS_P1;PMS_P2;Temp;Humidity;BMP_temperature;BMP_pressure;BME280_temperature;BME280_humidity;BME280_pressure;Samples;Min_cycle;Max_cycle;Signal;HPM_P1;HPM_P2
2021/07/14 00:06:22;;;;;;;;;24.75;24.50;;;;;17.92;71.88;101098.63;4788838;29;45445;-93
2021/07/14 00:09:35;;;;;;;;;30.00;25.50;;;;;17.92;72.09;101109.16;4826054;29;45450;-93
2021/07/14 00:12:26;;;;;;;;;24.50;23.50;;;;;17.93;71.90;101105.59;4825874;29;45495;-93
2021/07/14 00:15:14;;;;;;;;;28.00;25.25;;;;;17.92;72.14;101101.28;4809086;29;46895;-93
2021/07/14 00:24:59;;;;;;;;;;;;;;;;;;;;;
2021/07/14 00:27:55;;;;;;;;;24.00;21.00;;;;;17.79;72.05;101100.31;4843220;29;75125;-93
2021/07/14 00:30:34;;;;;;;;;;;;;;;;;;;;;
2021/07/14 00:33:33;;;;;;;;;;;;;;;;;;;;;
2021/07/14 00:50:23;;;;;;;;;;;;;;;;;;;;;
2021/07/14 00:52:48;;;;;;;;;21.50;21.25;;;;;17.65;71.77;101102.00;4879700;29;74889;-93
2021/07/14 00:55:50;;;;;;;;;;;;;;;;;;;;;
2021/07/14 00:58:40;;;;;;;;;;;;;;;;;;;;;
2021/07/14 01:58:47;;;;;;;;;11.67;11.33;;;;;17.26;71.64;101087.66;4995226;28;45634;-93
2021/07/14 16:47:20;;;;;;;;;12.50;12.50;;;;;21.71;54.32;101409.94;4870262;29;45651;-92
2021/07/14 16:51:07;;;;;;;;;;;;;;;;;;;;;
2021/07/14 16:54:20;;;;;;;;;;;;;;;;;;;;;
2021/07/14 17:05:12;;;;;;;;;;;;;;;;;;;;;
2021/07/14 17:35:40;;;;;;;;;;;;;;;;;;;;;
2021/07/14 17:40:15;;;;;;;;;;;;;;;;;;;;;
2021/07/14 17:46:10;;;;;;;;;11.00;9.00;;;;;20.82;55.71;101396.72;6220130;22;45437;-94
2021/07/14 17:49:02;;;;;;;;;9.33;9.33;;;;;20.77;55.31;101410.28;6128638;23;45492;-93
2021/07/14 17:54:56;;;;;;;;;;;;;;;;;;;;;
2021/07/14 17:58:13;;;;;;;;;;;;;;;;;;;;;
2021/07/14 18:05:36;;;;;;;;;;;;;;;;;;;;;
2021/07/14 18:09:04;;;;;;;;;;;;;;;;;;;;;
2021/07/14 18:26:24;;;;;;;;;;;;;;;;;;;;;
2021/07/14 18:28:56;;;;;;;;;14.00;12.33;;;;;20.41;56.06;101414.47;5755642;24;72804;-93
2021/07/14 18:31:49;;;;;;;;;;;;;;;;;;;;;
2021/07/14 18:34:26;;;;;;;;;15.00;14.00;;;;;20.37;56.52;101413.81;5732609;24;64442;-94
2021/07/14 18:37:10;;;;;;;;;;;;;;;;;;;;;
2021/07/14 18:39:41;;;;;;;;;12.00;10.00;;;;;20.34;57.11;101418.47;5822907;24;72860;-93
2021/07/14 18:42:46;;;;;;;;;;;;;;;;;;;;;
2021/07/14 18:45:39;;;;;;;;;13.00;13.00;;;;;20.33;56.75;101411.50;5929745;23;64439;-93
2021/07/14 18:49:02;;;;;;;;;;;;;;;;;;;;;
2021/07/14 18:51:47;;;;;;;;;13.25;12.25;;;;;20.38;57.14;101420.81;6043208;23;45381;-93
2021/07/14 18:55:05;;;;;;;;;;;;;;;;;;;;;
2021/07/14 19:01:05;;;;;;;;;13.00;12.75;;;;;20.33;56.82;101430.00;6147878;23;46294;-93
2021/07/14 19:07:42;;;;;;;;;12.00;12.00;;;;;20.28;57.09;101447.00;6003415;23;45555;-93
2021/07/14 19:10:39;;;;;;;;;14.25;13.00;;;;;20.30;57.27;101433.69;5895115;24;45411;-92
2021/07/14 19:13:53;;;;;;;;;;;;;;;;;;;;;
2021/07/14 19:17:03;;;;;;;;;14.67;11.33;;;;;20.30;57.39;101441.63;5889350;24;45475;-93
2021/07/14 19:20:09;;;;;;;;;;;;;;;;;;;;;
2021/07/14 19:26:47;;;;;;;;;;;;;;;;;;;;;
2021/07/14 19:29:36;;;;;;;;;14.50;13.50;;;;;20.21;57.65;101429.84;5730673;24;72845;-92
2021/07/14 19:32:32;;;;;;;;;;;;;;;;;;;;;
2021/07/14 19:38:47;;;;;;;;;13.50;13.50;;;;;20.14;57.80;101439.97;5757407;24;45479;-92
2021/07/14 19:41:53;;;;;;;;;15.50;15.00;;;;;20.14;58.22;101439.97;5793140;24;45742;-92
2021/07/14 19:45:12;;;;;;;;;;;;;;;;;;;;;
2021/07/14 19:53:47;;;;;;;;;19.75;15.25;;;;;20.10;57.91;101443.78;5757540;24;45939;-92
2021/07/14 20:00:24;;;;;;;;;17.50;17.50;;;;;20.08;58.28;101445.66;5810800;24;45511;-93
2021/07/14 20:16:33;;;;;;;;;12.75;12.75;;;;;20.08;58.92;101461.50;5748531;24;45444;-93
2021/07/14 20:19:51;;;;;;;;;16.00;14.50;;;;;20.08;59.24;101464.16;5757105;24;45836;-93
2021/07/14 20:22:31;;;;;;;;;15.00;15.00;;;;;20.08;59.26;101465.97;5800435;24;45380;-93
2021/07/14 20:26:02;;;;;;;;;18.25;15.50;;;;;20.03;59.01;101460.97;5879861;24;45779;-94
2021/07/14 20:28:55;;;;;;;;;16.00;15.00;;;;;20.06;59.25;101467.84;5832945;24;47189;-93
2021/07/14 20:31:58;;;;;;;;;16.25;15.00;;;;;20.07;59.52;101472.19;5864234;24;45788;-92
2021/07/14 20:34:34;;;;;;;;;14.50;13.50;;;;;20.06;59.15;101471.34;5885424;24;45352;-93
2021/07/14 20:37:29;;;;;;;;;14.00;12.75;;;;;20.08;59.11;101472.09;5892200;24;45165;-93
2021/07/14 20:40:54;;;;;;;;;15.50;15.00;;;;;20.09;59.40;101478.22;5891924;24;46727;-92
2021/07/14 20:43:37;;;;;;;;;;;;;;;;;;;;;
2021/07/14 20:46:09;;;;;;;;;16.00;15.00;;;;;20.05;59.55;101464.38;5915422;23;67492;-94
2021/07/14 20:48:37;;;;;;;;;16.00;14.50;;;;;20.05;59.42;101467.00;5945670;23;45490;-92
2021/07/14 20:51:11;;;;;;;;;14.25;13.25;;;;;20.00;59.75;101466.47;5946723;23;47150;-92
2021/07/14 20:54:12;;;;;;;;;;;;;;;;;;;;;
2021/07/14 20:57:03;;;;;;;;;15.75;14.50;;;;;20.02;59.63;101468.06;5945787;23;67651;-92
2021/07/14 20:59:52;;;;;;;;;;;;;;;;;;;;;
2021/07/14 21:02:26;;;;;;;;;17.75;16.50;;;;;20.02;59.92;101468.06;5945118;23;74801;-93
2021/07/14 21:05:33;;;;;;;;;;;;;;;;;;;;;
2021/07/14 21:08:16;;;;;;;;;;;;;;;;;;;;;
2021/07/14 21:10:57;;;;;;;;;20.50;18.00;;;;;20.06;60.09;101460.78;6001378;23;64750;-94
2021/07/14 21:13:30;;;;;;;;;17.25;14.75;;;;;20.01;59.91;101454.94;6002050;23;47281;-90
2021/07/14 21:15:56;;;;;;;;;17.00;13.25;;;;;19.99;59.86;101459.47;6002601;23;45439;-92
2021/07/14 21:18:53;;;;;;;;;14.00;13.50;;;;;19.94;60.07;101456.25;6002949;23;45493;-92
2021/07/14 21:21:33;;;;;;;;;15.50;15.00;;;;;19.97;60.05;101459.59;6153569;23;45413;-93
2021/07/14 21:24:25;;;;;;;;;14.00;13.00;;;;;19.98;60.45;101463.91;6177409;23;47154;-93
2021/07/14 21:27:50;;;;;;;;;15.50;14.00;;;;;19.97;60.30;101462.22;6178872;23;45406;-95
2021/07/14 21:30:35;;;;;;;;;13.33;13.33;;;;;19.99;60.30;101455.03;6118735;23;45483;-93
2021/07/14 21:33:32;;;;;;;;;12.00;11.00;;;;;19.98;60.33;101453.34;6096975;23;45250;-93
2021/07/14 21:36:45;;;;;;;;;14.00;13.00;;;;;19.96;60.50;101451.72;6096016;23;46629;-94
2021/07/14 21:39:43;;;;;;;;;11.33;11.33;;;;;19.90;59.79;101447.66;6062984;23;45330;-92
2021/07/14 21:42:24;;;;;;;;;;;;;;;;;;;;;
2021/07/14 21:45:39;;;;;;;;;13.67;13.00;;;;;19.91;60.03;101449.38;6031775;23;63590;-92
2021/07/14 21:55:04;;;;;;;;;13.33;12.67;;;;;19.84;60.51;101448.94;5976788;23;45280;-92
2021/07/14 22:01:24;;;;;;;;;8.67;8.67;;;;;19.86;60.19;101449.66;5976587;23;46480;-92
2021/07/14 22:04:06;;;;;;;;;9.00;9.00;;;;;19.87;60.47;101453.16;5978376;23;45334;-93
2021/07/14 22:09:58;;;;;;;;;;;;;;;;;;;;;
2021/07/14 22:19:14;;;;;;;;;;;;;;;;;;;;;
2021/07/14 22:21:40;;;;;;;;;13.67;11.00;;;;;19.75;60.75;101460.06;5921500;24;64428;-93
2021/07/14 22:24:51;;;;;;;;;;;;;;;;;;;;;
2021/07/14 22:31:16;;;;;;;;;10.67;10.00;;;;;19.67;60.68;101459.72;5781293;24;45380;-95
2021/07/14 22:37:41;;;;;;;;;10.00;9.33;;;;;19.71;60.67;101466.47;5722459;24;46266;-93
2021/07/14 22:50:22;;;;;;;;;;;;;;;;;;;;;
2021/07/14 22:53:33;;;;;;;;;;;;;;;;;;;;;
2021/07/14 22:56:41;;;;;;;;;;;;;;;;;;;;;
2021/07/14 22:59:28;;;;;;;;;;;;;;;;;;;;;
2021/07/14 23:03:02;;;;;;;;;12.00;9.00;;;;;19.64;60.95;101463.41;5706910;24;76303;-93
2021/07/14 23:05:51;;;;;;;;;8.33;8.33;;;;;19.62;61.00;101463.50;5818335;24;45282;-93
2021/07/14 23:08:27;;;;;;;;;7.00;7.00;;;;;19.61;60.90;101458.31;5920790;24;44882;-93
2021/07/14 23:11:52;;;;;;;;;;;;;;;;;;;;;
2021/07/14 23:14:38;;;;;;;;;8.67;7.33;;;;;19.57;61.12;101457.66;5976336;23;75667;-92
2021/07/14 23:17:40;;;;;;;;;;;;;;;;;;;;;
2021/07/14 23:20:34;;;;;;;;;7.00;7.00;;;;;19.54;60.97;101463.13;5998565;23;45675;-92
2021/07/14 23:23:10;;;;;;;;;10.67;9.00;;;;;19.54;61.14;101470.19;6035432;23;45623;-92
2021/07/14 23:25:54;;;;;;;;;9.67;9.00;;;;;19.50;60.91;101461.63;6018462;23;46685;-93
2021/07/14 23:31:22;;;;;;;;;10.33;10.33;;;;;19.47;60.84;101465.31;6063706;23;45349;-93
2021/07/14 23:34:12;;;;;;;;;8.33;8.33;;;;;19.44;60.90;101462.00;6064559;23;45629;-93
2021/07/14 23:36:52;;;;;;;;;11.00;10.00;;;;;19.45;60.93;101467.16;6034610;23;47889;-93
2021/07/14 23:43:12;;;;;;;;;10.00;8.67;;;;;19.39;60.86;101450.91;6035521;23;45132;-94
2021/07/14 23:45:48;;;;;;;;;;;;;;;;;;;;;
2021/07/14 23:48:27;;;;;;;;;7.67;7.67;;;;;19.29;61.01;101462.00;6063340;23;73974;-93
2021/07/14 23:51:15;;;;;;;;;10.33;8.67;;;;;19.22;60.94;101461.53;6112229;23;45426;-92
2021/07/14 23:53:44;;;;;;;;;10.33;9.33;;;;;19.20;61.06;101470.47;6127539;22;45228;-92
2021/07/14 23:56:17;;;;;;;;;7.67;7.33;;;;;19.19;61.13;101461.72;6152605;23;45432;-93
2021/07/14 23:59:00;;;;;;;;;;;;;;;;;;;;;
